createdAt,value
2019-02-14T00:01:26.188Z,7.33
2019-02-14T00:03:54.254Z,7.77
2019-02-14T00:06:21.743Z,7.47
2019-02-14T00:08:49.900Z,6.73
2019-02-14T00:11:17.789Z,6.47
2019-02-14T00:13:45.279Z,6.50
2019-02-14T00:16:13.302Z,6.70
2019-02-14T00:18:41.131Z,6.90
2019-02-14T00:21:09.136Z,7.43
2019-02-14T00:23:37.470Z,7.63
2019-02-14T00:26:06.278Z,7.43
2019-02-14T00:28:33.966Z,6.40
2019-02-14T00:31:01.521Z,7.87
2019-02-14T00:33:29.704Z,7.50
2019-02-14T00:35:57.456Z,8.77
2019-02-14T00:38:24.974Z,7.73
2019-02-14T00:40:52.531Z,7.73
2019-02-14T00:43:20.053Z,8.77
2019-02-14T00:45:48.386Z,7.27
2019-02-14T00:48:16.212Z,6.70
2019-02-14T00:50:44.326Z,7.50
2019-02-14T00:53:31.036Z,7.13
2019-02-14T00:56:17.292Z,6.80
2019-02-14T00:58:45.289Z,7.30
2019-02-14T01:01:12.601Z,6.70
2019-02-14T01:03:40.319Z,6.90
2019-02-14T01:06:07.830Z,7.13
2019-02-14T01:08:35.523Z,6.37
2019-02-14T01:11:02.886Z,6.53
2019-02-14T01:13:30.358Z,6.70
2019-02-14T01:15:58.122Z,5.83
2019-02-14T01:18:25.806Z,6.33
2019-02-14T01:20:53.832Z,5.93
2019-02-14T01:23:21.741Z,7.50
2019-02-14T01:25:49.809Z,6.27
2019-02-14T01:28:18.542Z,6.27
2019-02-14T01:30:46.090Z,6.57
2019-02-14T01:33:13.566Z,6.27
2019-02-14T01:35:42.153Z,6.17
2019-02-14T01:38:09.922Z,6.83
2019-02-14T01:40:37.680Z,5.60
2019-02-14T01:43:05.228Z,6.33
2019-02-14T01:45:32.835Z,6.37
2019-02-14T01:48:00.743Z,6.33
2019-02-14T01:50:28.760Z,6.33
2019-02-14T01:52:56.975Z,6.17
2019-02-14T01:55:24.782Z,6.60
2019-02-14T01:57:53.482Z,7.10
2019-02-14T02:00:21.008Z,6.10
2019-02-14T02:02:48.910Z,6.80
2019-02-14T02:05:19.516Z,6.17
2019-02-14T02:07:47.061Z,6.40
2019-02-14T02:10:15.911Z,6.67
2019-02-14T02:12:43.554Z,7.10
2019-02-14T02:15:12.549Z,6.87
2019-02-14T02:17:40.464Z,6.63
2019-02-14T02:20:08.005Z,7.00
2019-02-14T02:22:35.789Z,6.77
2019-02-14T02:25:04.061Z,6.43
2019-02-14T02:27:31.792Z,6.57
2019-02-14T02:29:59.298Z,6.67
2019-02-14T02:32:27.132Z,7.33
2019-02-14T02:34:54.670Z,7.10
2019-02-14T02:37:21.970Z,7.20
2019-02-14T02:39:50.057Z,6.53
2019-02-14T02:42:17.832Z,5.30
2019-02-14T02:44:45.223Z,6.40
2019-02-14T02:47:13.366Z,6.90
2019-02-14T02:49:40.840Z,6.97
2019-02-14T02:52:08.891Z,7.83
2019-02-14T02:54:36.974Z,6.90
2019-02-14T02:57:04.325Z,6.53
2019-02-14T02:59:31.766Z,6.20
2019-02-14T03:01:59.341Z,5.80
2019-02-14T03:04:27.012Z,6.30
2019-02-14T03:06:55.201Z,6.97
2019-02-14T03:09:23.359Z,6.17
2019-02-14T03:11:51.360Z,6.33
2019-02-14T03:14:19.709Z,6.10
2019-02-14T03:16:48.360Z,6.90
2019-02-14T03:19:16.055Z,5.70
2019-02-14T03:21:44.021Z,6.00
2019-02-14T03:24:11.949Z,6.37
2019-02-14T03:26:39.555Z,5.50
2019-02-14T03:29:07.228Z,6.63
2019-02-14T03:31:35.105Z,6.30
2019-02-14T03:34:02.547Z,5.53
2019-02-14T03:36:30.599Z,6.80
2019-02-14T03:38:59.190Z,5.93
2019-02-14T03:41:26.975Z,6.17
2019-02-14T03:43:54.489Z,6.10
2019-02-14T03:46:22.790Z,5.40
2019-02-14T03:48:50.385Z,6.60
2019-02-14T03:51:18.204Z,6.67
2019-02-14T03:53:45.707Z,6.53
2019-02-14T03:56:13.270Z,6.10
2019-02-14T03:58:40.894Z,5.80
2019-02-14T04:01:08.360Z,6.23
2019-02-14T04:03:36.498Z,6.20
2019-02-14T04:06:05.429Z,6.10
2019-02-14T04:08:32.883Z,7.13
2019-02-14T04:11:00.762Z,6.90
2019-02-14T04:13:28.568Z,6.10
2019-02-14T04:15:56.877Z,6.47
2019-02-14T04:18:24.364Z,5.80
2019-02-14T04:20:51.658Z,7.40
2019-02-14T04:23:19.152Z,6.27
2019-02-14T04:25:47.616Z,6.77
2019-02-14T04:28:15.397Z,6.90
2019-02-14T04:30:43.619Z,6.23
2019-02-14T04:33:11.335Z,6.70
2019-02-14T04:35:39.300Z,7.10
2019-02-14T04:38:07.592Z,5.70
2019-02-14T04:40:35.325Z,5.10
2019-02-14T04:43:02.928Z,6.80
2019-02-14T04:45:30.668Z,6.10
2019-02-14T04:47:58.433Z,7.63
2019-02-14T04:50:25.998Z,6.70
2019-02-14T04:52:53.765Z,5.77
2019-02-14T04:55:21.433Z,5.73
2019-02-14T04:57:49.847Z,7.10
2019-02-14T05:00:17.701Z,6.30
2019-02-14T05:02:45.525Z,5.87
2019-02-14T05:05:13.301Z,6.77
2019-02-14T05:07:41.388Z,6.50
2019-02-14T05:10:08.918Z,6.20
2019-02-14T05:12:36.932Z,6.27
2019-02-14T05:15:05.016Z,5.90
2019-02-14T05:17:33.879Z,6.17
2019-02-14T05:20:01.699Z,5.83
2019-02-14T05:22:29.685Z,7.00
2019-02-14T05:24:57.154Z,5.93
2019-02-14T05:27:24.884Z,6.60
2019-02-14T05:29:52.591Z,6.33
2019-02-14T05:32:20.424Z,5.97
2019-02-14T05:34:47.705Z,6.77
2019-02-14T05:37:15.687Z,5.87
2019-02-14T05:39:43.091Z,6.20
2019-02-14T05:42:11.351Z,6.77
2019-02-14T05:44:39.352Z,6.43
2019-02-14T05:47:07.328Z,6.13
2019-02-14T05:49:35.091Z,6.00
2019-02-14T05:52:02.851Z,6.33
2019-02-14T05:54:30.605Z,6.37
2019-02-14T05:56:58.195Z,11.60
2019-02-14T05:59:26.549Z,15.97
2019-02-14T06:01:54.109Z,10.90
2019-02-14T06:04:22.261Z,8.40
2019-02-14T06:06:50.354Z,7.37
2019-02-14T06:09:18.344Z,6.80
2019-02-14T06:11:46.790Z,5.97
2019-02-14T06:14:15.220Z,24.60
2019-02-14T06:16:43.071Z,39.23
2019-02-14T06:19:10.400Z,20.80
2019-02-14T06:21:37.878Z,12.13
2019-02-14T06:24:05.985Z,7.83
2019-02-14T06:26:33.912Z,7.77
2019-02-14T06:29:01.412Z,6.70
2019-02-14T06:31:29.253Z,6.90
2019-02-14T06:33:57.429Z,6.13
2019-02-14T06:36:26.429Z,5.70
2019-02-14T06:38:54.417Z,6.37
2019-02-14T06:41:21.965Z,6.10
2019-02-14T06:43:50.626Z,6.20
2019-02-14T06:46:18.412Z,7.00
2019-02-14T06:48:46.365Z,7.07
2019-02-14T06:51:14.765Z,6.97
2019-02-14T06:53:42.900Z,6.47
2019-02-14T06:56:10.773Z,7.90
2019-02-14T06:58:38.343Z,6.60
2019-02-14T07:01:05.991Z,5.30
2019-02-14T07:03:33.652Z,6.53
2019-02-14T07:06:01.895Z,6.87
2019-02-14T07:08:29.588Z,6.37
2019-02-14T07:10:57.711Z,6.37
2019-02-14T07:13:25.602Z,7.13
2019-02-14T07:15:53.561Z,6.00
2019-02-14T07:18:21.219Z,6.63
2019-02-14T07:20:49.185Z,5.70
2019-02-14T07:23:16.838Z,6.00
2019-02-14T07:25:44.874Z,5.30
2019-02-14T07:28:12.929Z,5.23
2019-02-14T07:30:41.105Z,6.37
2019-02-14T07:33:08.820Z,5.90
2019-02-14T07:35:37.008Z,5.80
2019-02-14T07:38:05.793Z,5.80
2019-02-14T07:40:33.834Z,5.03
2019-02-14T07:43:02.082Z,6.30
2019-02-14T07:45:29.647Z,6.80
2019-02-14T07:47:58.007Z,5.83
2019-02-14T07:50:25.640Z,6.33
2019-02-14T07:52:53.751Z,6.13
2019-02-14T07:55:21.537Z,6.23
2019-02-14T07:57:49.486Z,5.70
2019-02-14T08:00:17.522Z,6.00
2019-02-14T08:02:45.162Z,5.70
2019-02-14T08:05:13.934Z,6.00
2019-02-14T08:07:42.043Z,5.60
2019-02-14T08:10:11.592Z,5.93
2019-02-14T08:12:39.777Z,5.80
2019-02-14T08:15:09.796Z,7.47
2019-02-14T08:17:39.677Z,6.70
2019-02-14T08:20:08.036Z,6.77
2019-02-14T08:22:35.797Z,6.47
2019-02-14T08:25:04.099Z,6.50
2019-02-14T08:27:33.197Z,6.50
2019-02-14T08:30:01.262Z,5.10
2019-02-14T08:32:29.135Z,6.50
2019-02-14T08:34:56.929Z,6.30
2019-02-14T08:37:24.600Z,6.10
2019-02-14T08:39:53.465Z,5.87
2019-02-14T08:42:21.396Z,6.20
2019-02-14T08:44:49.800Z,6.10
2019-02-14T08:47:17.888Z,6.00
2019-02-14T08:49:45.929Z,5.87
2019-02-14T08:52:14.622Z,6.97
2019-02-14T08:54:43.036Z,5.93
2019-02-14T08:57:11.807Z,6.27
2019-02-14T08:59:39.763Z,5.83
2019-02-14T09:02:08.453Z,5.70
2019-02-14T09:04:36.278Z,6.73
2019-02-14T09:07:11.409Z,6.20
2019-02-14T09:09:40.770Z,7.03
2019-02-14T09:12:09.362Z,6.40
2019-02-14T09:14:39.049Z,6.00
2019-02-14T09:17:07.002Z,5.50
2019-02-14T09:19:34.670Z,4.80
2019-02-14T09:22:02.648Z,6.90
2019-02-14T09:24:30.625Z,5.17
2019-02-14T09:26:59.492Z,5.90
2019-02-14T09:29:27.478Z,6.13
2019-02-14T09:31:55.965Z,5.43
2019-02-14T09:34:24.770Z,6.50
2019-02-14T09:36:53.424Z,6.37
2019-02-14T09:39:21.565Z,5.70
2019-02-14T09:41:49.231Z,5.20
2019-02-14T09:44:17.332Z,4.97
2019-02-14T09:46:45.473Z,5.03
2019-02-14T09:49:13.473Z,5.70
2019-02-14T09:51:41.637Z,5.63
2019-02-14T09:54:09.683Z,6.30
2019-02-14T09:56:37.614Z,6.00
2019-02-14T09:59:05.247Z,4.63
2019-02-14T10:01:33.247Z,6.80
2019-02-14T10:04:01.004Z,5.10
2019-02-14T10:06:36.355Z,4.50
2019-02-14T10:09:00.541Z,5.00
2019-02-14T10:11:28.609Z,5.30
2019-02-14T10:13:56.519Z,5.37
2019-02-14T10:16:24.413Z,5.20
2019-02-14T10:18:52.426Z,5.87
2019-02-14T10:21:20.198Z,4.93
2019-02-14T10:23:47.938Z,5.30
2019-02-14T10:26:15.806Z,5.10
2019-02-14T10:28:46.984Z,4.90
2019-02-14T10:31:18.498Z,5.53
2019-02-14T10:33:46.293Z,5.03
2019-02-14T10:36:14.201Z,4.77
2019-02-14T10:38:41.850Z,5.00
2019-02-14T10:41:10.220Z,4.33
2019-02-14T10:43:38.224Z,6.20
2019-02-14T10:46:10.382Z,5.70
2019-02-14T10:48:38.488Z,5.77
2019-02-14T10:51:05.966Z,7.77
2019-02-14T10:53:34.341Z,6.73
2019-02-14T10:56:02.182Z,5.83
2019-02-14T10:58:30.025Z,5.17
2019-02-14T11:00:58.007Z,5.17
2019-02-14T11:03:25.917Z,4.90
2019-02-14T11:05:54.203Z,4.30
2019-02-14T11:08:31.092Z,5.30
2019-02-14T11:10:52.020Z,4.63
2019-02-14T11:13:19.920Z,5.20
2019-02-14T11:15:48.380Z,4.73
2019-02-14T11:18:17.387Z,4.97
2019-02-14T11:20:45.295Z,5.10
2019-02-14T11:23:13.328Z,10.13
2019-02-14T11:25:41.578Z,16.77
2019-02-14T11:28:09.378Z,17.87
2019-02-14T11:30:37.717Z,12.67
2019-02-14T11:33:05.342Z,11.23
2019-02-14T11:35:33.971Z,9.70
2019-02-14T11:38:01.578Z,7.93
2019-02-14T11:40:29.390Z,6.43
2019-02-14T11:42:57.358Z,6.33
2019-02-14T11:45:25.256Z,5.30
2019-02-14T11:47:53.934Z,4.50
2019-02-14T11:50:22.083Z,5.00
2019-02-14T11:52:50.083Z,4.10
2019-02-14T11:55:18.617Z,3.93
2019-02-14T11:57:47.531Z,4.27
2019-02-14T12:00:21.342Z,4.63
2019-02-14T12:02:55.488Z,3.33
2019-02-14T12:05:21.776Z,4.47
2019-02-14T12:07:51.497Z,3.40
2019-02-14T12:10:20.603Z,3.60
2019-02-14T12:12:48.767Z,3.20
2019-02-14T12:15:17.574Z,3.40
2019-02-14T12:17:49.402Z,3.30
2019-02-14T12:20:21.807Z,3.10
2019-02-14T12:22:53.712Z,3.47
2019-02-14T12:25:27.464Z,3.10
2019-02-14T12:27:59.763Z,5.37
2019-02-14T12:30:30.730Z,14.07
2019-02-14T12:33:01.156Z,10.40
2019-02-14T12:35:31.898Z,9.50
2019-02-14T12:38:03.038Z,7.70
2019-02-14T12:40:35.397Z,6.70
2019-02-14T12:43:04.913Z,6.30
2019-02-14T12:45:41.003Z,5.30
2019-02-14T12:48:09.246Z,4.40
2019-02-14T12:50:36.893Z,4.53
2019-02-14T12:53:04.643Z,4.07
2019-02-14T12:55:32.761Z,3.70
2019-02-14T12:58:05.752Z,4.27
2019-02-14T13:00:34.451Z,3.27
2019-02-14T13:03:02.470Z,2.67
2019-02-14T13:05:29.891Z,3.03
2019-02-14T13:07:57.560Z,2.83
2019-02-14T13:10:26.221Z,3.03
2019-02-14T13:12:53.873Z,2.63
2019-02-14T13:15:22.826Z,2.60
2019-02-14T13:17:50.718Z,2.73
2019-02-14T13:20:18.997Z,2.67
2019-02-14T13:22:46.986Z,2.70
2019-02-14T13:25:15.306Z,2.60
2019-02-14T13:27:43.226Z,2.57
2019-02-14T13:30:13.615Z,2.37
2019-02-14T13:32:42.474Z,2.27
2019-02-14T13:35:10.334Z,2.90
2019-02-14T13:37:40.079Z,2.63
2019-02-14T13:40:08.688Z,3.00
2019-02-14T13:42:36.713Z,2.63
2019-02-14T13:45:06.299Z,2.30
2019-02-14T13:47:33.928Z,3.30
2019-02-14T13:50:01.538Z,3.20
2019-02-14T13:52:29.876Z,3.50
2019-02-14T13:54:58.109Z,3.40
2019-02-14T13:57:25.906Z,3.20
2019-02-14T13:59:54.651Z,4.23
2019-02-14T14:02:22.747Z,11.77
2019-02-14T14:04:50.995Z,16.70
2019-02-14T14:07:19.285Z,15.27
2019-02-14T14:09:47.057Z,11.60
2019-02-14T14:12:15.774Z,9.63
2019-02-14T14:14:43.723Z,7.13
2019-02-14T14:17:11.437Z,5.90
2019-02-14T14:19:39.270Z,5.43
2019-02-14T14:22:07.453Z,4.70
2019-02-14T14:24:35.344Z,4.43
2019-02-14T14:27:03.257Z,4.87
2019-02-14T14:29:31.766Z,4.40
2019-02-14T14:31:59.953Z,4.00
2019-02-14T14:34:28.008Z,3.63
2019-02-14T14:36:56.063Z,3.70
2019-02-14T14:39:24.043Z,4.47
2019-02-14T14:41:52.542Z,3.57
2019-02-14T14:44:48.386Z,3.57
2019-02-14T14:47:18.652Z,4.10
2019-02-14T14:49:48.089Z,3.03
2019-02-14T14:52:16.321Z,2.80
2019-02-14T14:54:45.247Z,4.70
2019-02-14T14:57:13.334Z,3.23
2019-02-14T14:59:41.309Z,3.43
2019-02-14T15:02:09.038Z,3.03
2019-02-14T15:04:36.869Z,3.00
2019-02-14T15:07:04.875Z,5.27
2019-02-14T15:09:32.459Z,15.00
2019-02-14T15:12:01.640Z,11.60
2019-02-14T15:14:29.763Z,10.43
2019-02-14T15:16:58.426Z,8.90
2019-02-14T15:19:25.889Z,7.30
2019-02-14T15:21:56.922Z,6.60
2019-02-14T15:24:25.414Z,5.90
2019-02-14T15:26:53.512Z,5.47
2019-02-14T15:29:21.597Z,4.77
2019-02-14T15:31:50.108Z,3.77
2019-02-14T15:34:18.250Z,3.53
2019-02-14T15:36:47.217Z,3.57
2019-02-14T15:39:15.489Z,2.80
2019-02-14T15:41:43.583Z,3.10
2019-02-14T15:44:11.065Z,2.97
2019-02-14T15:46:39.247Z,3.53
2019-02-14T15:49:07.266Z,3.00
2019-02-14T15:51:35.079Z,3.03
2019-02-14T15:54:03.264Z,4.83
2019-02-14T15:56:31.590Z,9.00
2019-02-14T15:59:00.393Z,8.83
2019-02-14T16:01:29.805Z,7.53
2019-02-14T16:03:58.010Z,6.10
2019-02-14T16:06:27.847Z,5.90
2019-02-14T16:08:55.446Z,5.40
2019-02-14T16:11:23.455Z,5.03
2019-02-14T16:13:52.830Z,4.27
2019-02-14T16:16:22.586Z,4.37
2019-02-14T16:18:51.051Z,4.70
2019-02-14T16:21:19.521Z,4.60
2019-02-14T16:23:47.372Z,4.30
2019-02-14T16:26:15.360Z,3.20
2019-02-14T16:28:44.631Z,4.83
2019-02-14T16:31:12.637Z,8.90
2019-02-14T16:33:40.425Z,9.10
2019-02-14T16:36:08.464Z,9.17
2019-02-14T16:38:37.182Z,7.10
2019-02-14T16:41:09.564Z,6.53
2019-02-14T16:43:37.587Z,6.37
2019-02-14T16:46:05.642Z,6.07
2019-02-14T16:48:33.273Z,5.90
2019-02-14T16:51:00.753Z,5.47
2019-02-14T16:53:29.076Z,5.47
2019-02-14T16:56:02.113Z,5.60
2019-02-14T16:58:27.870Z,5.13
2019-02-14T17:00:56.470Z,5.70
2019-02-14T17:03:24.727Z,5.53
2019-02-14T17:05:52.995Z,6.00
2019-02-14T17:08:22.022Z,5.50
2019-02-14T17:10:49.954Z,5.90
2019-02-14T17:13:18.139Z,5.97
2019-02-14T17:15:46.414Z,5.70
2019-02-14T17:18:14.107Z,5.30
2019-02-14T17:20:41.972Z,5.90
2019-02-14T17:23:09.856Z,7.30
2019-02-14T17:25:37.921Z,6.00
2019-02-14T17:28:05.961Z,6.07
2019-02-14T17:30:33.960Z,7.33
2019-02-14T17:33:01.997Z,6.17
2019-02-14T17:35:29.705Z,6.00
2019-02-14T17:37:57.611Z,6.30
2019-02-14T17:40:26.322Z,6.10
2019-02-14T17:42:54.233Z,6.83
2019-02-14T17:45:22.119Z,6.67
2019-02-14T17:47:49.915Z,7.33
2019-02-14T17:50:17.484Z,7.33
2019-02-14T17:52:45.102Z,7.67
2019-02-14T17:55:12.892Z,7.60
2019-02-14T17:57:40.864Z,8.23
2019-02-14T18:00:09.481Z,10.03
2019-02-14T18:02:37.040Z,10.97
2019-02-14T18:05:05.717Z,8.40
2019-02-14T18:07:33.574Z,7.83
2019-02-14T18:10:01.536Z,9.00
2019-02-14T18:12:31.290Z,9.80
2019-02-14T18:14:58.575Z,9.20
2019-02-14T18:17:26.401Z,10.50
2019-02-14T18:19:54.050Z,8.70
2019-02-14T18:22:22.130Z,9.43
2019-02-14T18:24:49.792Z,8.03
2019-02-14T18:27:17.594Z,7.57
2019-02-14T18:29:46.195Z,8.23
2019-02-14T18:32:14.329Z,8.17
2019-02-14T18:34:42.234Z,8.83
2019-02-14T18:37:09.739Z,7.43
2019-02-14T18:39:37.751Z,6.70
2019-02-14T18:42:06.342Z,7.20
2019-02-14T18:44:34.168Z,6.10
2019-02-14T18:47:01.906Z,6.50
2019-02-14T18:49:29.622Z,6.40
2019-02-14T18:51:57.526Z,5.90
2019-02-14T18:54:25.527Z,5.37
2019-02-14T18:56:53.848Z,5.80
2019-02-14T18:59:22.644Z,5.87
2019-02-14T19:01:50.607Z,5.20
2019-02-14T19:04:18.492Z,5.17
2019-02-14T19:06:46.067Z,5.13
2019-02-14T19:09:13.854Z,4.50
2019-02-14T19:11:42.448Z,4.07
2019-02-14T19:14:10.728Z,3.80
2019-02-14T19:16:38.275Z,3.93
2019-02-14T19:19:06.072Z,3.37
2019-02-14T19:21:33.434Z,3.20
2019-02-14T19:24:01.767Z,3.37
2019-02-14T19:26:30.032Z,3.10
2019-02-14T19:28:57.650Z,3.80
2019-02-14T19:31:26.355Z,3.63
2019-02-14T19:33:54.689Z,4.57
2019-02-14T19:36:23.074Z,4.20
2019-02-14T19:38:51.187Z,4.23
2019-02-14T19:41:25.401Z,4.10
2019-02-14T19:43:48.673Z,3.93
2019-02-14T19:46:16.301Z,4.80
2019-02-14T19:48:43.864Z,3.63
2019-02-14T19:51:11.287Z,3.03
2019-02-14T19:53:39.398Z,3.90
2019-02-14T19:56:07.201Z,3.80
2019-02-14T19:58:35.395Z,3.63
2019-02-14T20:01:04.836Z,3.13
2019-02-14T20:03:32.576Z,3.30
2019-02-14T20:05:59.878Z,3.87
2019-02-14T20:08:28.756Z,3.70
2019-02-14T20:10:57.386Z,3.80
2019-02-14T20:13:24.839Z,4.27
2019-02-14T20:15:52.628Z,4.80
2019-02-14T20:18:20.195Z,5.90
2019-02-14T20:20:48.500Z,6.50
2019-02-14T20:23:16.564Z,6.23
2019-02-14T20:25:44.726Z,5.40
2019-02-14T20:28:12.817Z,6.57
2019-02-14T20:30:40.268Z,5.97
2019-02-14T20:33:09.534Z,6.20
2019-02-14T20:35:38.017Z,4.97
2019-02-14T20:38:06.129Z,4.90
2019-02-14T20:40:33.890Z,5.53
2019-02-14T20:43:01.530Z,5.43
2019-02-14T20:45:29.545Z,5.30
2019-02-14T20:47:57.568Z,4.83
2019-02-14T20:50:25.621Z,21.50
2019-02-14T20:52:53.141Z,21.23
2019-02-14T20:55:21.036Z,15.00
2019-02-14T20:57:48.575Z,12.37
2019-02-14T21:00:35.253Z,7.63
2019-02-14T21:03:03.675Z,6.50
2019-02-14T21:05:31.340Z,5.00
2019-02-14T21:07:59.577Z,4.50
2019-02-14T21:10:27.600Z,3.67
2019-02-14T21:12:55.398Z,2.80
2019-02-14T21:15:24.156Z,3.20
2019-02-14T21:17:52.018Z,3.30
2019-02-14T21:20:19.628Z,2.47
2019-02-14T21:22:50.078Z,2.90
2019-02-14T21:25:22.480Z,2.80
2019-02-14T21:27:46.983Z,2.70
2019-02-14T21:30:15.170Z,2.53
2019-02-14T21:32:42.770Z,2.33
2019-02-14T21:35:10.702Z,2.67
2019-02-14T21:37:38.493Z,3.03
2019-02-14T21:40:07.467Z,2.93
2019-02-14T21:42:35.084Z,3.13
2019-02-14T21:45:03.530Z,3.40
2019-02-14T21:47:31.193Z,2.90
2019-02-14T21:49:58.710Z,3.27
2019-02-14T21:52:26.156Z,2.70
2019-02-14T21:54:54.055Z,3.03
2019-02-14T21:57:23.333Z,2.93
2019-02-14T21:59:51.566Z,2.80
2019-02-14T22:02:19.185Z,3.30
2019-02-14T22:04:47.019Z,2.93
2019-02-14T22:07:15.220Z,3.30
2019-02-14T22:09:43.109Z,3.20
2019-02-14T22:12:10.624Z,2.97
2019-02-14T22:14:38.684Z,2.90
2019-02-14T22:17:06.479Z,3.67
2019-02-14T22:19:34.031Z,3.23
2019-02-14T22:22:01.705Z,3.23
2019-02-14T22:24:29.206Z,3.20
2019-02-14T22:26:57.118Z,2.80
2019-02-14T22:29:24.697Z,3.00
2019-02-14T22:31:52.652Z,3.00
2019-02-14T22:34:20.684Z,3.30
2019-02-14T22:36:48.181Z,3.60
2019-02-14T22:39:16.193Z,3.43
2019-02-14T22:41:44.010Z,3.70
2019-02-14T22:44:11.571Z,3.10
2019-02-14T22:46:39.759Z,2.93
2019-02-14T22:49:07.322Z,3.00
2019-02-14T22:51:34.801Z,3.47
2019-02-14T22:54:02.986Z,3.70
2019-02-14T22:56:30.755Z,3.37
2019-02-14T22:58:58.356Z,2.67
2019-02-14T23:01:26.757Z,3.53
2019-02-14T23:03:57.824Z,4.10
2019-02-14T23:06:25.492Z,3.40
2019-02-14T23:08:53.742Z,3.10
2019-02-14T23:11:21.689Z,2.73
2019-02-14T23:13:49.077Z,3.37
2019-02-14T23:16:17.434Z,3.50
2019-02-14T23:18:45.373Z,3.67
2019-02-14T23:21:13.244Z,3.07
2019-02-14T23:23:40.824Z,3.27
2019-02-14T23:26:08.530Z,3.37
2019-02-14T23:28:36.465Z,3.93
2019-02-14T23:31:04.501Z,3.67
2019-02-14T23:33:32.183Z,3.40
2019-02-14T23:35:59.984Z,2.77
2019-02-14T23:38:27.938Z,3.50
2019-02-14T23:40:55.994Z,3.93
2019-02-14T23:43:23.745Z,3.13
2019-02-14T23:45:52.605Z,3.07
2019-02-14T23:48:20.197Z,3.00
2019-02-14T23:50:47.941Z,3.23
2019-02-14T23:53:15.514Z,3.07
2019-02-14T23:55:43.066Z,3.37
2019-02-14T23:58:10.633Z,3.60
